Time,TemperatureF,DewpointF,PressureIn,WindDirection,WindDirectionDegrees,WindSpeedMPH,WindSpeedGustMPH,Humidity,HourlyPrecipIn,Conditions,Clouds,dailyrainin,SolarRadiationWatts/m^2,SoftwareType,DateUTC
2013-07-23 00:00:00,72.5,71.6,29.85,North,351,0.0,0.0,97,0.02,,---,0.40,0.00,VWS V14.01,2013-07-23 04:00:00,
2013-07-23 00:01:00,72.3,71.4,29.84,North,351,0.0,0.0,97,0.20,,---,0.00,0.00,VWS V14.01,2013-07-23 04:01:00,
2013-07-23 00:06:00,72.3,71.4,29.84,North,351,0.0,0.0,97,0.21,,---,0.01,0.00,VWS V14.01,2013-07-23 04:06:00,
2013-07-23 00:11:00,72.3,71.4,29.83,North,351,0.0,0.0,97,0.21,,---,0.01,0.00,VWS V14.01,2013-07-23 04:11:00,
2013-07-23 00:16:00,72.2,71.3,29.83,North,351,0.0,0.0,97,0.22,,---,0.02,0.00,VWS V14.01,2013-07-23 04:16:00,
2013-07-23 00:21:00,72.2,71.3,29.83,North,351,0.0,0.0,97,0.22,,---,0.02,0.00,VWS V14.01,2013-07-23 04:21:00,
2013-07-23 00:26:00,72.2,71.3,29.83,North,351,0.0,0.0,97,0.22,,---,0.02,0.00,VWS V14.01,2013-07-23 04:26:00,
2013-07-23 00:30:00,72.4,71.5,29.85,North,351,0.0,0.0,97,0.05,,---,0.43,0.00,VWS V14.01,2013-07-23 04:30:00,
2013-07-23 00:31:00,72.2,71.3,29.82,North,351,0.0,0.0,97,0.19,,---,0.02,0.00,VWS V14.01,2013-07-23 04:31:00,
2013-07-23 00:36:00,72.2,71.3,29.82,North,351,0.0,0.0,97,0.19,,---,0.02,0.00,VWS V14.01,2013-07-23 04:36:00,
2013-07-23 00:41:00,72.2,71.3,29.82,North,351,0.0,0.0,97,0.20,,---,0.03,0.00,VWS V14.01,2013-07-23 04:41:00,
2013-07-23 00:46:00,72.2,71.3,29.82,North,351,0.0,0.0,97,0.20,,---,0.03,0.00,VWS V14.01,2013-07-23 04:46:00,
2013-07-23 00:51:00,72.2,71.3,29.82,North,351,0.0,0.0,97,0.20,,---,0.03,0.00,VWS V14.01,2013-07-23 04:51:00,
2013-07-23 00:56:00,72.2,71.3,29.81,North,351,0.0,0.0,97,0.20,,---,0.03,0.00,VWS V14.01,2013-07-23 04:56:00,
2013-07-23 01:00:00,72.3,71.4,29.84,North,351,0.0,0.0,97,0.20,,---,0.60,0.00,VWS V14.01,2013-07-23 05:00:00,
2013-07-23 01:01:00,72.2,71.3,29.81,North,351,0.0,0.0,97,0.03,,---,0.03,0.00,VWS V14.01,2013-07-23 05:01:00,
2013-07-23 01:06:00,72.2,71.3,29.81,North,351,0.0,0.0,97,0.03,,---,0.03,0.00,VWS V14.01,2013-07-23 05:06:00,
2013-07-23 01:11:00,72.2,71.3,29.81,North,351,0.0,0.0,97,0.03,,---,0.03,0.00,VWS V14.01,2013-07-23 05:11:00,
2013-07-23 01:16:00,72.1,71.2,29.80,North,351,0.0,0.0,97,0.03,,---,0.03,0.00,VWS V14.01,2013-07-23 05:16:00,
2013-07-23 01:21:00,72.1,71.2,29.80,North,351,0.0,0.0,97,0.03,,---,0.03,0.00,VWS V14.01,2013-07-23 05:21:00,
2013-07-23 01:26:00,72.1,71.2,29.80,North,351,0.0,0.0,97,0.03,,---,0.03,0.00,VWS V14.01,2013-07-23 05:26:00,
2013-07-23 01:30:00,72.2,71.3,29.82,North,351,0.0,0.0,97,0.22,,---,0.02,0.00,VWS V14.01,2013-07-23 05:30:00,
2013-07-23 01:31:00,72.0,71.1,29.80,North,351,0.0,0.0,97,0.01,,---,0.03,0.00,VWS V14.01,2013-07-23 05:31:00,
2013-07-23 01:36:00,72.0,71.1,29.80,North,351,0.0,0.0,97,0.01,,---,0.03,0.00,VWS V14.01,2013-07-23 05:36:00,
2013-07-23 01:41:00,72.0,71.1,29.79,North,351,0.0,0.0,97,0.01,,---,0.03,0.00,VWS V14.01,2013-07-23 05:41:00,
2013-07-23 01:46:00,72.0,71.4,29.79,North,351,0.0,0.0,98,0.01,,---,0.03,0.00,VWS V14.01,2013-07-23 05:46:00,
2013-07-23 01:51:00,72.0,71.4,29.79,North,351,0.0,0.0,98,0.01,,---,0.03,0.00,VWS V14.01,2013-07-23 05:51:00,
2013-07-23 01:56:00,71.9,71.0,29.78,North,351,0.0,0.0,97,0.01,,---,0.03,0.00,VWS V14.01,2013-07-23 05:56:00,
2013-07-23 02:00:00,72.2,71.3,29.81,North,351,0.0,0.0,97,0.20,,---,0.03,0.00,VWS V14.01,2013-07-23 06:00:00,
2013-07-23 02:01:00,71.8,70.9,29.78,North,351,0.0,0.0,97,0.00,,---,0.03,0.00,VWS V14.01,2013-07-23 06:01:00,
2013-07-23 02:06:00,71.7,70.8,29.78,North,351,0.0,0.0,97,0.00,,---,0.03,0.00,VWS V14.01,2013-07-23 06:06:00,
2013-07-23 02:11:00,71.6,70.7,29.78,ESE,114,0.0,3.0,97,0.00,,---,0.03,0.00,VWS V14.01,2013-07-23 06:11:00,
2013-07-23 02:16:00,71.5,70.6,29.78,ESE,114,0.0,3.0,97,0.00,,---,0.03,0.00,VWS V14.01,2013-07-23 06:16:00,
2013-07-23 02:21:00,71.5,70.6,29.77,ESE,114,0.0,3.0,97,0.00,,---,0.03,0.00,VWS V14.01,2013-07-23 06:21:00,
2013-07-23 02:26:00,71.5,70.6,29.77,ESE,114,0.0,3.0,97,0.01,,---,0.04,0.00,VWS V14.01,2013-07-23 06:26:00,
2013-07-23 02:30:00,72.0,71.1,29.80,North,351,0.0,0.0,97,0.03,,---,0.03,0.00,VWS V14.01,2013-07-23 06:30:00,
2013-07-23 02:31:00,71.6,70.7,29.77,ESE,113,0.0,0.0,97,0.01,,---,0.04,0.00,VWS V14.01,2013-07-23 06:31:00,
2013-07-23 02:36:00,71.6,70.7,29.77,ESE,113,0.0,0.0,97,0.02,,---,0.05,0.00,VWS V14.01,2013-07-23 06:36:00,
2013-07-23 02:41:00,71.6,70.7,29.76,ESE,113,0.0,0.0,97,0.03,,---,0.06,0.00,VWS V14.01,2013-07-23 06:41:00,
2013-07-23 02:46:00,71.4,70.5,29.76,ESE,114,0.0,0.0,97,0.04,,---,0.07,0.00,VWS V14.01,2013-07-23 06:46:00,
2013-07-23 02:51:00,71.4,70.5,29.76,ESE,114,0.0,0.0,97,0.06,,---,0.09,0.00,VWS V14.01,2013-07-23 06:51:00,
2013-07-23 02:56:00,71.4,70.5,29.75,ESE,113,0.0,0.0,97,0.06,,---,0.09,0.00,VWS V14.01,2013-07-23 06:56:00,
2013-07-23 03:00:00,71.8,70.9,29.78,North,351,0.0,0.0,97,0.01,,---,0.03,0.00,VWS V14.01,2013-07-23 07:00:00,
2013-07-23 03:01:00,71.3,70.4,29.76,ESE,114,0.0,0.0,97,0.06,,---,0.09,0.00,VWS V14.01,2013-07-23 07:01:00,
2013-07-23 03:06:00,71.4,70.8,29.76,West,271,0.0,3.0,98,0.07,,---,0.10,0.00,VWS V14.01,2013-07-23 07:06:00,
2013-07-23 03:11:00,71.3,70.7,29.76,West,271,0.0,3.0,98,0.08,,---,0.11,0.00,VWS V14.01,2013-07-23 07:11:00,
2013-07-23 03:16:00,71.2,70.6,29.75,West,271,0.0,3.0,98,0.22,,---,0.25,0.00,VWS V14.01,2013-07-23 07:16:00,
2013-07-23 03:21:00,71.2,70.6,29.75,West,271,0.0,3.0,98,0.23,,---,0.26,0.00,VWS V14.01,2013-07-23 07:21:00,
2013-07-23 03:26:00,71.2,70.6,29.75,West,271,0.0,3.0,98,0.24,,---,0.27,0.00,VWS V14.01,2013-07-23 07:26:00,
2013-07-23 03:30:00,71.6,70.7,29.77,ESE,114,0.0,3.0,97,0.01,,---,0.04,0.00,VWS V14.01,2013-07-23 07:30:00,
2013-07-23 03:31:00,71.2,70.6,29.75,West,271,0.0,0.0,98,0.23,,---,0.27,0.00,VWS V14.01,2013-07-23 07:31:00,
2013-07-23 03:36:00,71.2,70.6,29.74,West,271,0.0,0.0,98,0.23,,---,0.27,0.00,VWS V14.01,2013-07-23 07:36:00,
2013-07-23 03:41:00,71.2,70.6,29.74,West,271,0.0,0.0,98,0.23,,---,0.27,0.00,VWS V14.01,2013-07-23 07:41:00,
2013-07-23 03:46:00,71.2,70.6,29.74,West,271,0.0,0.0,98,0.25,,---,0.29,0.00,VWS V14.01,2013-07-23 07:46:00,
2013-07-23 03:51:00,71.2,70.6,29.74,West,271,0.0,0.0,98,0.26,,---,0.30,0.00,VWS V14.01,2013-07-23 07:51:00,
2013-07-23 03:56:00,71.2,70.6,29.73,West,271,0.0,0.0,98,0.26,,---,0.30,0.00,VWS V14.01,2013-07-23 07:56:00,
2013-07-23 04:00:00,71.3,70.4,29.76,ESE,113,0.0,0.0,97,0.06,,---,0.09,0.00,VWS V14.01,2013-07-23 08:00:00,
2013-07-23 04:01:00,71.2,70.6,29.73,West,271,0.0,0.0,98,0.22,,---,0.31,0.00,VWS V14.01,2013-07-23 08:01:00,
2013-07-23 04:06:00,71.2,70.6,29.73,West,271,0.0,0.0,98,0.22,,---,0.31,0.00,VWS V14.01,2013-07-23 08:06:00,
2013-07-23 04:11:00,71.2,70.6,29.73,West,271,0.0,0.0,98,0.22,,---,0.31,0.00,VWS V14.01,2013-07-23 08:11:00,
2013-07-23 04:16:00,71.2,70.6,29.73,West,271,0.0,0.0,98,0.22,,---,0.31,0.00,VWS V14.01,2013-07-23 08:16:00,
2013-07-23 04:21:00,71.3,70.7,29.72,West,271,0.0,0.0,98,0.22,,---,0.31,0.00,VWS V14.01,2013-07-23 08:21:00,
2013-07-23 04:26:00,71.3,70.7,29.72,West,271,0.0,0.0,98,0.22,,---,0.31,0.00,VWS V14.01,2013-07-23 08:26:00,
2013-07-23 04:30:00,71.2,70.6,29.75,West,271,0.0,3.0,98,0.24,,---,0.27,0.00,VWS V14.01,2013-07-23 08:30:00,
2013-07-23 04:31:00,71.3,70.7,29.72,West,271,0.0,0.0,98,0.04,,---,0.31,0.00,VWS V14.01,2013-07-23 08:31:00,
2013-07-23 04:36:00,71.3,70.7,29.72,West,271,0.0,0.0,98,0.04,,---,0.31,0.00,VWS V14.01,2013-07-23 08:36:00,
2013-07-23 04:41:00,71.3,70.7,29.72,West,271,0.0,0.0,98,0.04,,---,0.31,0.00,VWS V14.01,2013-07-23 08:41:00,
2013-07-23 04:46:00,71.3,70.7,29.72,West,271,0.0,0.0,98,0.04,,---,0.31,0.00,VWS V14.01,2013-07-23 08:46:00,
2013-07-23 04:51:00,71.2,70.6,29.72,West,271,0.0,0.0,98,0.04,,---,0.31,0.00,VWS V14.01,2013-07-23 08:51:00,
2013-07-23 04:56:00,71.2,70.6,29.72,West,271,0.0,0.0,98,0.04,,---,0.31,0.00,VWS V14.01,2013-07-23 08:56:00,
2013-07-23 05:00:00,71.2,70.6,29.73,West,271,0.0,0.0,98,0.27,,---,0.31,0.00,VWS V14.01,2013-07-23 09:00:00,
2013-07-23 05:01:00,71.1,70.5,29.72,West,271,0.0,0.0,98,0.00,,---,0.31,0.00,VWS V14.01,2013-07-23 09:01:00,
2013-07-23 05:06:00,71.1,70.5,29.72,West,271,0.0,0.0,98,0.00,,---,0.31,0.00,VWS V14.01,2013-07-23 09:06:00,
2013-07-23 05:11:00,71.1,70.5,29.72,West,271,0.0,0.0,98,0.00,,---,0.31,0.00,VWS V14.01,2013-07-23 09:11:00,
2013-07-23 05:16:00,71.2,70.6,29.72,West,271,0.0,0.0,98,0.00,,---,0.31,0.00,VWS V14.01,2013-07-23 09:16:00,
2013-07-23 05:21:00,71.2,70.6,29.72,West,271,0.0,0.0,98,0.00,,---,0.31,0.00,VWS V14.01,2013-07-23 09:21:00,
2013-07-23 05:26:00,71.2,70.6,29.71,West,271,0.0,0.0,98,0.01,,---,0.32,0.00,VWS V14.01,2013-07-23 09:26:00,
2013-07-23 05:30:00,71.3,70.7,29.72,West,271,0.0,0.0,98,0.22,,---,0.31,0.00,VWS V14.01,2013-07-23 09:30:00,
2013-07-23 05:31:00,71.2,70.6,29.71,West,271,0.0,0.0,98,0.01,,---,0.32,0.00,VWS V14.01,2013-07-23 09:31:00,
2013-07-23 05:36:00,71.2,70.6,29.71,West,271,0.0,0.0,98,0.02,,---,0.33,0.00,VWS V14.01,2013-07-23 09:36:00,
2013-07-23 05:41:00,71.2,70.6,29.71,West,271,0.0,0.0,98,0.02,,---,0.33,0.00,VWS V14.01,2013-07-23 09:41:00,
2013-07-23 05:46:00,71.2,70.6,29.71,West,271,0.0,0.0,98,0.03,,---,0.34,0.00,VWS V14.01,2013-07-23 09:46:00,
2013-07-23 05:51:00,71.2,70.6,29.70,West,271,0.0,0.0,98,0.03,,---,0.34,0.00,VWS V14.01,2013-07-23 09:51:00,
2013-07-23 05:56:00,71.2,70.6,29.70,West,271,0.0,0.0,98,0.03,,---,0.34,0.00,VWS V14.01,2013-07-23 09:56:00,
2013-07-23 06:00:00,71.1,70.5,29.72,West,271,0.0,0.0,98,0.04,,---,0.31,0.00,VWS V14.01,2013-07-23 10:00:00,
2013-07-23 06:01:00,71.2,70.6,29.70,West,271,0.0,0.0,98,0.03,,---,0.34,5.00,VWS V14.01,2013-07-23 10:01:00,
2013-07-23 06:06:00,71.1,70.5,29.70,West,271,0.0,0.0,98,0.03,,---,0.34,7.00,VWS V14.01,2013-07-23 10:06:00,
2013-07-23 06:11:00,71.2,70.6,29.70,West,271,0.0,0.0,98,0.03,,---,0.34,11.00,VWS V14.01,2013-07-23 10:11:00,
2013-07-23 06:16:00,71.2,70.6,29.70,West,271,0.0,0.0,98,0.03,,---,0.34,9.00,VWS V14.01,2013-07-23 10:16:00,
2013-07-23 06:21:00,71.3,70.7,29.70,West,271,0.0,0.0,98,0.03,,---,0.34,7.00,VWS V14.01,2013-07-23 10:21:00,
2013-07-23 06:26:00,71.3,70.7,29.70,West,271,0.0,0.0,98,0.04,,---,0.35,12.00,VWS V14.01,2013-07-23 10:26:00,
2013-07-23 06:30:00,71.2,70.6,29.72,West,271,0.0,0.0,98,0.01,,---,0.32,0.00,VWS V14.01,2013-07-23 10:30:00,
2013-07-23 06:31:00,71.3,70.7,29.70,West,271,0.0,0.0,98,0.03,,---,0.35,12.00,VWS V14.01,2013-07-23 10:31:00,
2013-07-23 06:36:00,71.3,70.7,29.70,West,271,0.0,0.0,98,0.03,,---,0.35,12.00,VWS V14.01,2013-07-23 10:36:00,
2013-07-23 06:41:00,71.2,70.6,29.70,West,271,0.0,0.0,98,0.03,,---,0.35,12.00,VWS V14.01,2013-07-23 10:41:00,
2013-07-23 06:46:00,71.3,70.7,29.70,West,271,0.0,0.0,98,0.03,,---,0.35,12.00,VWS V14.01,2013-07-23 10:46:00,
2013-07-23 06:51:00,71.3,70.7,29.70,West,271,0.0,0.0,98,0.03,,---,0.35,16.00,VWS V14.01,2013-07-23 10:51:00,
2013-07-23 06:56:00,71.4,70.8,29.70,West,271,0.0,0.0,98,0.03,,---,0.35,19.00,VWS V14.01,2013-07-23 10:56:00,
2013-07-23 07:00:00,71.2,70.6,29.70,West,271,0.0,0.0,98,0.03,,---,0.34,0.00,VWS V14.01,2013-07-23 11:00:00,
2013-07-23 07:01:00,71.5,70.9,29.69,West,271,0.0,0.0,98,0.01,,---,0.35,33.00,VWS V14.01,2013-07-23 11:01:00,
2013-07-23 07:06:00,71.5,70.9,29.69,West,271,0.0,0.0,98,0.01,,---,0.35,44.00,VWS V14.01,2013-07-23 11:06:00,
2013-07-23 07:11:00,71.5,70.9,29.69,West,271,0.0,0.0,98,0.01,,---,0.35,42.00,VWS V14.01,2013-07-23 11:11:00,
2013-07-23 07:16:00,71.6,71.0,29.69,West,271,0.0,0.0,98,0.01,,---,0.35,54.00,VWS V14.01,2013-07-23 11:16:00,
2013-07-23 07:21:00,71.7,71.1,29.68,West,271,0.0,0.0,98,0.01,,---,0.35,72.00,VWS V14.01,2013-07-23 11:21:00,
2013-07-23 07:26:00,71.8,71.2,29.68,West,271,0.0,0.0,98,0.01,,---,0.35,84.00,VWS V14.01,2013-07-23 11:26:00,
2013-07-23 07:30:00,71.3,70.7,29.70,West,271,0.0,0.0,98,0.04,,---,0.35,12.00,VWS V14.01,2013-07-23 11:30:00,
2013-07-23 07:31:00,71.9,71.3,29.69,West,271,0.0,0.0,98,0.00,,---,0.35,74.00,VWS V14.01,2013-07-23 11:31:00,
2013-07-23 07:36:00,72.0,71.4,29.69,West,271,0.0,0.0,98,0.00,,---,0.35,65.00,VWS V14.01,2013-07-23 11:36:00,
2013-07-23 07:41:00,72.0,71.4,29.68,West,271,0.0,0.0,98,0.00,,---,0.35,58.00,VWS V14.01,2013-07-23 11:41:00,
2013-07-23 07:46:00,72.0,71.4,29.68,West,271,0.0,0.0,98,0.00,,---,0.35,81.00,VWS V14.01,2013-07-23 11:46:00,
2013-07-23 07:51:00,72.0,71.4,29.68,West,271,0.0,0.0,98,0.00,,---,0.35,105.00,VWS V14.01,2013-07-23 11:51:00,
2013-07-23 07:56:00,72.1,71.5,29.68,West,271,0.0,0.0,98,0.00,,---,0.35,127.00,VWS V14.01,2013-07-23 11:56:00,
2013-07-23 08:00:00,71.4,70.8,29.70,West,271,0.0,0.0,98,0.03,,---,0.35,26.00,VWS V14.01,2013-07-23 12:00:00,
2013-07-23 08:01:00,72.2,71.6,29.68,West,271,0.0,0.0,98,0.00,,---,0.35,146.00,VWS V14.01,2013-07-23 12:01:00,
2013-07-23 08:06:00,72.5,71.9,29.67,West,271,0.0,0.0,98,0.00,,---,0.35,162.00,VWS V14.01,2013-07-23 12:06:00,
2013-07-23 08:11:00,72.5,71.9,29.67,West,271,0.0,0.0,98,0.00,,---,0.35,160.00,VWS V14.01,2013-07-23 12:11:00,
2013-07-23 08:16:00,72.7,72.1,29.67,West,271,0.0,0.0,98,0.00,,---,0.35,174.00,VWS V14.01,2013-07-23 12:16:00,
2013-07-23 08:21:00,73.0,72.4,29.67,West,271,0.0,0.0,98,0.00,,---,0.35,155.00,VWS V14.01,2013-07-23 12:21:00,
2013-07-23 08:26:00,73.1,72.5,29.67,West,271,0.0,0.0,98,0.00,,---,0.35,120.00,VWS V14.01,2013-07-23 12:26:00,
2013-07-23 08:30:00,71.9,71.3,29.69,West,271,0.0,0.0,98,0.01,,---,0.35,72.00,VWS V14.01,2013-07-23 12:30:00,
2013-07-23 08:31:00,73.1,72.5,29.67,West,271,0.0,0.0,98,0.00,,---,0.35,88.00,VWS V14.01,2013-07-23 12:31:00,
2013-07-23 08:36:00,73.3,72.7,29.67,West,271,0.0,0.0,98,0.00,,---,0.35,132.00,VWS V14.01,2013-07-23 12:36:00,
2013-07-23 08:41:00,73.3,72.7,29.67,West,271,0.0,0.0,98,0.00,,---,0.35,232.00,VWS V14.01,2013-07-23 12:41:00,
2013-07-23 08:46:00,73.5,72.9,29.67,West,271,0.0,0.0,98,0.00,,---,0.35,156.00,VWS V14.01,2013-07-23 12:46:00,
2013-07-23 08:51:00,73.5,72.9,29.66,West,271,0.0,0.0,98,0.00,,---,0.35,100.00,VWS V14.01,2013-07-23 12:51:00,
2013-07-23 08:56:00,73.4,72.8,29.66,West,271,0.0,2.0,98,0.00,,---,0.35,100.00,VWS V14.01,2013-07-23 12:56:00,
2013-07-23 09:00:00,72.2,71.6,29.68,West,271,0.0,0.0,98,0.00,,---,0.35,139.00,VWS V14.01,2013-07-23 13:00:00,
2013-07-23 09:01:00,73.3,72.7,29.66,West,271,0.0,0.0,98,0.00,,---,0.35,151.00,VWS V14.01,2013-07-23 13:01:00,
2013-07-23 09:06:00,73.6,73.0,29.66,West,271,0.0,0.0,98,0.00,,---,0.35,274.00,VWS V14.01,2013-07-23 13:06:00,
2013-07-23 09:11:00,73.8,73.2,29.65,West,271,0.0,1.0,98,0.00,,---,0.35,220.00,VWS V14.01,2013-07-23 13:11:00,
2013-07-23 09:16:00,74.4,73.8,29.65,NW,304,0.0,3.0,98,0.00,,---,0.35,724.00,VWS V14.01,2013-07-23 13:16:00,
2013-07-23 09:21:00,75.2,74.6,29.65,SE,138,0.0,3.0,98,0.00,,---,0.35,383.00,VWS V14.01,2013-07-23 13:21:00,
2013-07-23 09:26:00,74.7,73.5,29.65,West,277,0.0,5.0,96,0.00,,---,0.35,232.00,VWS V14.01,2013-07-23 13:26:00,
2013-07-23 09:30:00,73.1,72.5,29.67,West,271,0.0,0.0,98,0.00,,---,0.35,83.00,VWS V14.01,2013-07-23 13:30:00,
2013-07-23 09:31:00,74.5,73.3,29.65,West,277,0.0,0.0,96,0.00,,---,0.35,338.00,VWS V14.01,2013-07-23 13:31:00,
2013-07-23 09:36:00,74.9,73.7,29.65,WNW,302,0.0,3.0,96,0.00,,---,0.35,325.00,VWS V14.01,2013-07-23 13:36:00,
2013-07-23 09:41:00,74.7,73.2,29.65,NW,311,0.0,4.0,95,0.00,,---,0.35,130.00,VWS V14.01,2013-07-23 13:41:00,
2013-07-23 09:46:00,74.5,72.7,29.65,West,271,2.0,4.0,94,0.00,,---,0.35,148.00,VWS V14.01,2013-07-23 13:46:00,
2013-07-23 09:51:00,74.6,73.1,29.64,WSW,254,0.0,4.0,95,0.00,,---,0.35,322.00,VWS V14.01,2013-07-23 13:51:00,
2013-07-23 09:56:00,74.9,73.4,29.64,West,260,0.0,4.0,95,0.00,,---,0.35,306.00,VWS V14.01,2013-07-23 13:56:00,
2013-07-23 10:00:00,73.3,72.7,29.66,West,271,0.0,2.0,98,0.00,,---,0.35,163.00,VWS V14.01,2013-07-23 14:00:00,
2013-07-23 10:01:00,75.7,74.5,29.64,NNE,27,0.0,0.0,96,0.00,,---,0.35,396.00,VWS V14.01,2013-07-23 14:01:00,
2013-07-23 10:06:00,76.0,74.5,29.64,SSE,157,0.0,2.0,95,0.00,,---,0.35,396.00,VWS V14.01,2013-07-23 14:06:00,
2013-07-23 10:11:00,76.3,74.1,29.64,ESE,103,2.0,4.0,93,0.00,,---,0.35,315.00,VWS V14.01,2013-07-23 14:11:00,
2013-07-23 10:16:00,76.5,74.0,29.63,WNW,289,0.0,4.0,92,0.00,,---,0.35,306.00,VWS V14.01,2013-07-23 14:16:00,
2013-07-23 10:21:00,76.6,73.8,29.63,NW,312,0.0,4.0,91,0.00,,---,0.35,309.00,VWS V14.01,2013-07-23 14:21:00,
2013-07-23 10:26:00,76.6,74.1,29.64,West,270,4.0,6.0,92,0.00,,---,0.35,304.00,VWS V14.01,2013-07-23 14:26:00,
2013-07-23 10:30:00,74.5,73.3,29.65,West,277,0.0,5.0,96,0.00,,---,0.35,251.00,VWS V14.01,2013-07-23 14:30:00,
2013-07-23 10:31:00,76.6,74.1,29.63,West,276,0.0,0.0,92,0.00,,---,0.35,327.00,VWS V14.01,2013-07-23 14:31:00,
2013-07-23 10:36:00,76.9,74.4,29.63,West,276,0.0,0.0,92,0.00,,---,0.35,156.00,VWS V14.01,2013-07-23 14:36:00,
2013-07-23 10:41:00,76.9,74.1,29.63,West,276,0.0,1.0,91,0.00,,---,0.35,257.00,VWS V14.01,2013-07-23 14:41:00,
2013-07-23 10:46:00,77.1,73.9,29.63,West,274,0.0,5.0,90,0.00,,---,0.35,501.00,VWS V14.01,2013-07-23 14:46:00,
2013-07-23 10:51:00,77.6,74.4,29.63,West,274,0.0,5.0,90,0.00,,---,0.35,237.00,VWS V14.01,2013-07-23 14:51:00,
2013-07-23 10:56:00,77.6,74.1,29.63,WNW,300,0.0,5.0,89,0.00,,---,0.35,243.00,VWS V14.01,2013-07-23 14:56:00,
2013-07-23 11:00:00,75.7,74.5,29.64,NNE,27,0.0,4.0,96,0.00,,---,0.35,383.00,VWS V14.01,2013-07-23 15:00:00,
2013-07-23 11:01:00,78.0,74.5,29.63,NW,305,5.0,5.0,89,0.00,,---,0.35,325.00,VWS V14.01,2013-07-23 15:01:00,
2013-07-23 11:06:00,78.4,74.6,29.63,WNW,283,4.0,5.0,88,0.00,,---,0.35,325.00,VWS V14.01,2013-07-23 15:06:00,
2013-07-23 11:11:00,78.5,74.0,29.63,WNW,283,0.0,5.0,86,0.00,,---,0.35,309.00,VWS V14.01,2013-07-23 15:11:00,
2013-07-23 11:16:00,79.2,75.3,29.63,WNW,298,0.0,5.0,88,0.00,,---,0.35,1041.00,VWS V14.01,2013-07-23 15:16:00,
2013-07-23 11:21:00,79.1,73.8,29.63,WNW,298,0.0,5.0,84,0.00,,---,0.35,830.00,VWS V14.01,2013-07-23 15:21:00,
2013-07-23 11:26:00,79.3,74.8,29.63,WNW,298,1.0,5.0,86,0.00,,---,0.35,949.00,VWS V14.01,2013-07-23 15:26:00,
2013-07-23 11:30:00,76.6,73.8,29.63,West,276,0.0,6.0,91,0.00,,---,0.35,336.00,VWS V14.01,2013-07-23 15:30:00,
2013-07-23 11:31:00,79.5,74.2,29.63,WNW,295,3.0,3.0,84,0.00,,---,0.35,846.00,VWS V14.01,2013-07-23 15:31:00,
2013-07-23 11:36:00,79.9,74.3,29.63,NW,313,6.0,7.0,83,0.00,,---,0.35,925.00,VWS V14.01,2013-07-23 15:36:00,
2013-07-23 11:41:00,80.6,74.6,29.63,WNW,292,0.0,7.0,82,0.00,,---,0.35,902.00,VWS V14.01,2013-07-23 15:41:00,
2013-07-23 11:46:00,80.8,74.4,29.63,WNW,292,0.0,7.0,81,0.00,,---,0.35,476.00,VWS V14.01,2013-07-23 15:46:00,
2013-07-23 11:51:00,80.9,74.5,29.63,WNW,303,0.0,7.0,81,0.00,,---,0.35,1169.00,VWS V14.01,2013-07-23 15:51:00,
2013-07-23 11:56:00,80.7,74.3,29.63,West,271,4.0,7.0,81,0.00,,---,0.35,292.00,VWS V14.01,2013-07-23 15:56:00,
2013-07-23 12:00:00,77.9,74.4,29.63,WNW,300,0.0,5.0,89,0.00,,---,0.35,325.00,VWS V14.01,2013-07-23 16:00:00,
2013-07-23 12:01:00,80.4,74.0,29.63,WSW,246,0.0,3.0,81,0.00,,---,0.35,241.00,VWS V14.01,2013-07-23 16:01:00,
2013-07-23 12:06:00,80.0,73.7,29.63,West,266,0.0,4.0,81,0.00,,---,0.35,218.00,VWS V14.01,2013-07-23 16:06:00,
2013-07-23 12:11:00,79.7,73.7,29.63,West,259,0.0,4.0,82,0.00,,---,0.35,250.00,VWS V14.01,2013-07-23 16:11:00,
2013-07-23 12:16:00,79.3,73.7,29.63,WSW,257,0.0,6.0,83,0.00,,---,0.35,213.00,VWS V14.01,2013-07-23 16:16:00,
2013-07-23 12:21:00,78.8,73.6,29.63,WNW,297,0.0,7.0,84,0.00,,---,0.35,227.00,VWS V14.01,2013-07-23 16:21:00,
2013-07-23 12:26:00,78.5,73.3,29.63,NNW,341,0.0,7.0,84,0.00,,---,0.35,265.00,VWS V14.01,2013-07-23 16:26:00,
2013-07-23 12:30:00,79.4,73.8,29.63,West,279,0.0,6.0,83,0.00,,---,0.35,638.00,VWS V14.01,2013-07-23 16:30:00,
2013-07-23 12:31:00,78.3,72.7,29.63,West,281,3.0,5.0,83,0.00,,---,0.35,197.00,VWS V14.01,2013-07-23 16:31:00,
2013-07-23 12:36:00,78.1,71.8,29.62,West,263,0.0,5.0,81,0.00,,---,0.35,279.00,VWS V14.01,2013-07-23 16:36:00,
2013-07-23 12:41:00,78.5,73.6,29.62,West,263,0.0,5.0,85,0.00,,---,0.35,1009.00,VWS V14.01,2013-07-23 16:41:00,
2013-07-23 12:46:00,79.4,73.4,29.62,West,264,0.0,5.0,82,0.00,,---,0.35,1018.00,VWS V14.01,2013-07-23 16:46:00,
2013-07-23 12:51:00,79.9,73.2,29.62,WNW,299,0.0,7.0,80,0.00,,---,0.35,371.00,VWS V14.01,2013-07-23 16:51:00,
2013-07-23 12:56:00,80.0,73.3,29.62,ENE,57,5.0,7.0,80,0.00,,---,0.35,229.00,VWS V14.01,2013-07-23 16:56:00,
2013-07-23 13:00:00,80.4,73.7,29.63,WSW,246,1.0,7.0,80,0.00,,---,0.35,269.00,VWS V14.01,2013-07-23 17:00:00,
2013-07-23 13:01:00,79.5,72.4,29.63,WNW,284,0.0,0.0,79,0.00,,---,0.35,125.00,VWS V14.01,2013-07-23 17:01:00,
2013-07-23 13:06:00,78.8,72.1,29.62,WSW,251,0.0,4.0,80,0.00,,---,0.35,130.00,VWS V14.01,2013-07-23 17:06:00,
2013-07-23 13:11:00,78.3,72.4,29.62,West,279,0.0,4.0,82,0.00,,---,0.35,200.00,VWS V14.01,2013-07-23 17:11:00,
2013-07-23 13:16:00,78.6,73.7,29.62,ENE,78,0.0,4.0,85,0.00,,---,0.35,972.00,VWS V14.01,2013-07-23 17:16:00,
2013-07-23 13:21:00,79.7,74.1,29.62,ENE,72,0.0,4.0,83,0.00,,---,0.35,983.00,VWS V14.01,2013-07-23 17:21:00,
2013-07-23 13:26:00,81.0,73.1,29.61,ENE,65,0.0,5.0,77,0.00,,---,0.35,341.00,VWS V14.01,2013-07-23 17:26:00,
2013-07-23 13:30:00,78.3,73.1,29.63,WSW,250,5.0,7.0,84,0.00,,---,0.35,216.00,VWS V14.01,2013-07-23 17:30:00,
2013-07-23 13:31:00,81.1,73.2,29.61,NNE,30,0.0,0.0,77,0.00,,---,0.35,345.00,VWS V14.01,2013-07-23 17:31:00,
2013-07-23 13:36:00,80.7,71.7,29.62,WSW,252,0.0,6.0,74,0.00,,---,0.35,295.00,VWS V14.01,2013-07-23 17:36:00,
2013-07-23 13:41:00,80.3,72.1,29.61,SW,228,0.0,8.0,76,0.00,,---,0.35,432.00,VWS V14.01,2013-07-23 17:41:00,
2013-07-23 13:46:00,80.2,71.9,29.61,West,259,0.0,8.0,76,0.00,,---,0.35,181.00,VWS V14.01,2013-07-23 17:46:00,
2013-07-23 13:51:00,80.0,72.5,29.61,West,259,0.0,8.0,78,0.00,,---,0.35,128.00,VWS V14.01,2013-07-23 17:51:00,
2013-07-23 13:56:00,79.6,71.8,29.61,ENE,62,0.0,8.0,77,0.00,,---,0.35,188.00,VWS V14.01,2013-07-23 17:56:00,
2013-07-23 14:00:00,79.6,72.5,29.63,WNW,284,0.0,7.0,79,0.00,,---,0.35,137.00,VWS V14.01,2013-07-23 18:00:00,
2013-07-23 14:02:00,79.0,71.9,29.61,ENE,61,0.0,0.0,79,0.00,,---,0.35,214.00,VWS V14.01,2013-07-23 18:02:00,
2013-07-23 14:07:00,78.9,72.6,29.61,SSE,165,0.0,4.0,81,0.00,,---,0.35,294.00,VWS V14.01,2013-07-23 18:07:00,
2013-07-23 14:11:00,79.3,72.6,29.62,WSW,257,0.0,4.0,80,0.00,,---,0.35,160.00,VWS V14.01,2013-07-23 18:11:00,
2013-07-23 14:17:00,79.1,70.9,29.62,WSW,239,0.0,4.0,76,0.00,,---,0.35,139.00,VWS V14.01,2013-07-23 18:17:00,
2013-07-23 14:22:00,78.8,71.7,29.62,WSW,239,0.0,4.0,79,0.00,,---,0.35,120.00,VWS V14.01,2013-07-23 18:22:00,
2013-07-23 14:27:00,78.3,70.9,29.61,WSW,239,0.0,4.0,78,0.00,,---,0.35,116.00,VWS V14.01,2013-07-23 18:27:00,
2013-07-23 14:30:00,81.1,73.6,29.61,NNE,29,0.0,5.0,78,0.00,,---,0.35,332.00,VWS V14.01,2013-07-23 18:30:00,
2013-07-23 14:32:00,78.0,72.1,29.61,ENE,70,0.0,3.0,82,0.00,,---,0.35,114.00,VWS V14.01,2013-07-23 18:32:00,
2013-07-23 14:37:00,77.6,71.7,29.61,ENE,71,0.0,3.0,82,0.00,,---,0.35,111.00,VWS V14.01,2013-07-23 18:37:00,
2013-07-23 14:42:00,77.3,71.4,29.62,ENE,71,0.0,3.0,82,0.00,,---,0.35,100.00,VWS V14.01,2013-07-23 18:42:00,
2013-07-23 14:48:00,77.0,71.4,29.61,WSW,239,0.0,3.0,83,0.00,,---,0.35,93.00,VWS V14.01,2013-07-23 18:48:00,
2013-07-23 14:53:00,76.9,71.7,29.62,WSW,239,0.0,3.0,84,0.00,,---,0.35,104.00,VWS V14.01,2013-07-23 18:53:00,
2013-07-23 14:58:00,76.7,71.5,29.61,WSW,239,0.0,3.0,84,0.00,,---,0.35,114.00,VWS V14.01,2013-07-23 18:58:00,
2013-07-23 15:00:00,79.1,71.7,29.61,ENE,62,0.0,8.0,78,0.00,,---,0.35,204.00,VWS V14.01,2013-07-23 19:00:00,
2013-07-23 15:03:00,76.6,71.4,29.61,WSW,239,0.0,0.0,84,0.00,,---,0.35,116.00,VWS V14.01,2013-07-23 19:03:00,
2013-07-23 15:08:00,76.6,71.4,29.61,WSW,239,0.0,1.0,84,0.00,,---,0.35,125.00,VWS V14.01,2013-07-23 19:08:00,
2013-07-23 15:13:00,76.5,71.3,29.61,WSW,239,0.0,1.0,84,0.00,,---,0.35,128.00,VWS V14.01,2013-07-23 19:13:00,
2013-07-23 15:18:00,76.5,71.7,29.61,WSW,239,0.0,1.0,85,0.00,,---,0.35,123.00,VWS V14.01,2013-07-23 19:18:00,
2013-07-23 15:23:00,76.5,71.7,29.60,WSW,239,0.0,1.0,85,0.00,,---,0.35,134.00,VWS V14.01,2013-07-23 19:23:00,
2013-07-23 15:28:00,76.5,71.0,29.60,WSW,239,0.0,1.0,83,0.00,,---,0.35,156.00,VWS V14.01,2013-07-23 19:28:00,
2013-07-23 15:30:00,78.1,71.8,29.61,WSW,239,1.0,4.0,81,0.00,,---,0.35,116.00,VWS V14.01,2013-07-23 19:30:00,
2013-07-23 15:33:00,76.7,71.9,29.60,WSW,239,0.0,0.0,85,0.00,,---,0.35,373.00,VWS V14.01,2013-07-23 19:33:00,
2013-07-23 15:38:00,77.1,71.2,29.61,WSW,239,0.0,0.0,82,0.00,,---,0.35,315.00,VWS V14.01,2013-07-23 19:38:00,
2013-07-23 15:43:00,77.5,72.3,29.61,WSW,239,0.0,0.0,84,0.00,,---,0.35,752.00,VWS V14.01,2013-07-23 19:43:00,
2013-07-23 15:48:00,78.0,73.5,29.61,WSW,241,0.0,3.0,86,0.00,,---,0.35,229.00,VWS V14.01,2013-07-23 19:48:00,
2013-07-23 15:53:00,78.0,73.8,29.61,ESE,113,0.0,3.0,87,0.00,,---,0.35,176.00,VWS V14.01,2013-07-23 19:53:00,
2013-07-23 15:58:00,77.8,73.6,29.61,ESE,113,0.0,3.0,87,0.00,,---,0.35,111.00,VWS V14.01,2013-07-23 19:58:00,
2013-07-23 16:00:00,76.7,71.9,29.61,WSW,239,0.0,3.0,85,0.00,,---,0.35,114.00,VWS V14.01,2013-07-23 20:00:00,
2013-07-23 16:03:00,77.5,73.3,29.61,ESE,113,0.0,0.0,87,0.00,,---,0.35,77.00,VWS V14.01,2013-07-23 20:03:00,
2013-07-23 16:08:00,77.2,73.4,29.62,ESE,113,0.0,0.0,88,0.00,,---,0.35,107.00,VWS V14.01,2013-07-23 20:08:00,
2013-07-23 16:14:00,76.9,73.1,29.62,ESE,113,0.0,0.0,88,0.01,,---,0.36,132.00,VWS V14.01,2013-07-23 20:14:00,
2013-07-23 16:19:00,76.4,73.2,29.62,NW,309,0.0,0.0,90,0.02,,---,0.37,209.00,VWS V14.01,2013-07-23 20:19:00,
2013-07-23 16:24:00,76.0,73.2,29.62,NW,309,0.0,0.0,91,0.04,,---,0.39,248.00,VWS V14.01,2013-07-23 20:24:00,
2013-07-23 16:29:00,75.7,72.9,29.62,NW,309,0.0,0.0,91,0.04,,---,0.39,153.00,VWS V14.01,2013-07-23 20:29:00,
2013-07-23 16:30:00,76.5,71.3,29.60,WSW,239,0.0,1.0,84,0.00,,---,0.35,185.00,VWS V14.01,2013-07-23 20:30:00,
2013-07-23 16:34:00,75.6,73.1,29.62,NW,309,0.0,0.0,92,0.04,,---,0.39,128.00,VWS V14.01,2013-07-23 20:34:00,
2013-07-23 16:39:00,75.3,72.8,29.62,NW,309,0.0,0.0,92,0.04,,---,0.39,104.00,VWS V14.01,2013-07-23 20:39:00,
2013-07-23 16:44:00,75.2,72.7,29.62,NW,309,0.0,0.0,92,0.04,,---,0.39,102.00,VWS V14.01,2013-07-23 20:44:00,
2013-07-23 16:49:00,75.1,72.9,29.61,NW,309,0.0,0.0,93,0.04,,---,0.39,142.00,VWS V14.01,2013-07-23 20:49:00,
2013-07-23 16:54:00,75.0,72.8,29.61,NW,309,0.0,0.0,93,0.04,,---,0.39,248.00,VWS V14.01,2013-07-23 20:54:00,
2013-07-23 16:59:00,75.2,73.4,29.60,NW,309,0.0,0.0,94,0.05,,---,0.40,547.00,VWS V14.01,2013-07-23 20:59:00,
2013-07-23 17:00:00,77.7,73.2,29.61,ESE,113,0.0,3.0,86,0.00,,---,0.35,98.00,VWS V14.01,2013-07-23 21:00:00,
2013-07-23 17:04:00,76.0,74.2,29.60,NW,309,0.0,0.0,94,0.05,,---,0.40,606.00,VWS V14.01,2013-07-23 21:04:00,
2013-07-23 17:09:00,76.5,74.0,29.60,NW,309,0.0,0.0,92,0.05,,---,0.40,475.00,VWS V14.01,2013-07-23 21:09:00,
2013-07-23 17:17:00,76.9,73.8,29.59,NW,309,0.0,0.0,90,0.05,,---,0.40,534.00,VWS V14.01,2013-07-23 21:17:00,
2013-07-23 17:22:00,77.3,74.1,29.59,NW,309,0.0,1.0,90,0.05,,---,0.40,209.00,VWS V14.01,2013-07-23 21:22:00,
2013-07-23 17:27:00,77.3,73.5,29.59,NW,309,0.0,1.0,88,0.05,,---,0.40,548.00,VWS V14.01,2013-07-23 21:27:00,
2013-07-23 17:30:00,75.7,73.2,29.62,NW,309,0.0,0.0,92,0.04,,---,0.39,139.00,VWS V14.01,2013-07-23 21:30:00,
2013-07-23 17:32:00,77.5,73.3,29.59,NW,309,0.0,3.0,87,0.01,,---,0.40,501.00,VWS V14.01,2013-07-23 21:32:00,
2013-07-23 17:38:00,77.3,72.8,29.59,NW,309,0.0,3.0,86,0.01,,---,0.40,464.00,VWS V14.01,2013-07-23 21:38:00,
2013-07-23 17:43:00,77.0,72.2,29.59,NW,309,0.0,3.0,85,0.01,,---,0.40,438.00,VWS V14.01,2013-07-23 21:43:00,
2013-07-23 17:48:00,77.2,73.0,29.59,NW,309,0.0,3.0,87,0.01,,---,0.40,410.00,VWS V14.01,2013-07-23 21:48:00,
2013-07-23 17:53:00,77.3,72.4,29.59,NW,309,0.0,3.0,85,0.01,,---,0.40,392.00,VWS V14.01,2013-07-23 21:53:00,
2013-07-23 17:58:00,77.8,73.3,29.59,NW,309,0.0,3.0,86,0.01,,---,0.40,371.00,VWS V14.01,2013-07-23 21:58:00,
2013-07-23 18:00:00,75.3,73.5,29.60,NW,309,0.0,0.0,94,0.05,,---,0.40,689.00,VWS V14.01,2013-07-23 22:00:00,
2013-07-23 18:03:00,78.2,73.7,29.59,NW,309,0.0,1.0,86,0.00,,---,0.40,91.00,VWS V14.01,2013-07-23 22:03:00,
2013-07-23 18:08:00,78.2,73.7,29.59,NW,309,0.0,1.0,86,0.00,,---,0.40,330.00,VWS V14.01,2013-07-23 22:08:00,
2013-07-23 18:13:00,78.0,73.5,29.59,NW,309,0.0,3.0,86,0.00,,---,0.40,341.00,VWS V14.01,2013-07-23 22:13:00,
2013-07-23 18:18:00,78.0,73.5,29.59,West,277,0.0,4.0,86,0.00,,---,0.40,116.00,VWS V14.01,2013-07-23 22:18:00,
2013-07-23 18:23:00,78.0,73.5,29.59,West,263,0.0,4.0,86,0.00,,---,0.40,100.00,VWS V14.01,2013-07-23 22:23:00,
2013-07-23 18:28:00,77.8,73.3,29.59,West,263,0.0,4.0,86,0.00,,---,0.40,56.00,VWS V14.01,2013-07-23 22:28:00,
2013-07-23 18:30:00,77.4,73.9,29.59,NW,309,0.0,1.0,89,0.05,,---,0.40,522.00,VWS V14.01,2013-07-23 22:30:00,
2013-07-23 18:33:00,77.5,73.3,29.59,West,263,0.0,3.0,87,0.00,,---,0.40,30.00,VWS V14.01,2013-07-23 22:33:00,
2013-07-23 18:38:00,77.0,73.2,29.59,West,271,0.0,6.0,88,0.00,,---,0.40,26.00,VWS V14.01,2013-07-23 22:38:00,
2013-07-23 18:43:00,76.5,73.0,29.59,West,267,1.0,6.0,89,0.00,,---,0.40,44.00,VWS V14.01,2013-07-23 22:43:00,
2013-07-23 18:48:00,76.0,72.5,29.60,West,278,2.0,6.0,89,0.00,,---,0.40,46.00,VWS V14.01,2013-07-23 22:48:00,
2013-07-23 18:54:00,75.7,72.9,29.60,West,262,2.0,6.0,91,0.00,,---,0.40,65.00,VWS V14.01,2013-07-23 22:54:00,
2013-07-23 18:59:00,75.7,72.9,29.60,West,269,0.0,6.0,91,0.00,,---,0.40,70.00,VWS V14.01,2013-07-23 22:59:00,
2013-07-23 19:00:00,78.0,73.5,29.59,NW,309,0.0,3.0,86,0.01,,---,0.40,234.00,VWS V14.01,2013-07-23 23:00:00,
2013-07-23 19:04:00,75.7,72.9,29.60,WNW,300,3.0,4.0,91,0.00,,---,0.40,111.00,VWS V14.01,2013-07-23 23:04:00,
2013-07-23 19:09:00,75.8,73.0,29.60,WNW,300,0.0,4.0,91,0.00,,---,0.40,127.00,VWS V14.01,2013-07-23 23:09:00,
2013-07-23 19:14:00,75.9,72.8,29.61,WNW,300,0.0,4.0,90,0.00,,---,0.40,116.00,VWS V14.01,2013-07-23 23:14:00,
2013-07-23 19:19:00,76.0,72.9,29.61,WNW,300,0.0,4.0,90,0.00,,---,0.40,104.00,VWS V14.01,2013-07-23 23:19:00,
2013-07-23 19:24:00,76.1,73.0,29.61,WNW,300,0.0,4.0,90,0.00,,---,0.40,111.00,VWS V14.01,2013-07-23 23:24:00,
2013-07-23 19:29:00,76.1,73.0,29.61,WNW,300,0.0,4.0,90,0.00,,---,0.40,146.00,VWS V14.01,2013-07-23 23:29:00,
2013-07-23 19:30:00,77.7,73.2,29.59,West,263,0.0,4.0,86,0.00,,---,0.40,44.00,VWS V14.01,2013-07-23 23:30:00,
2013-07-23 19:34:00,76.1,72.6,29.61,WNW,300,0.0,0.0,89,0.00,,---,0.40,155.00,VWS V14.01,2013-07-23 23:34:00,
2013-07-23 19:39:00,76.3,73.2,29.62,WNW,300,0.0,0.0,90,0.00,,---,0.40,125.00,VWS V14.01,2013-07-23 23:39:00,
2013-07-23 19:44:00,76.4,72.6,29.62,WNW,300,0.0,0.0,88,0.00,,---,0.40,84.00,VWS V14.01,2013-07-23 23:44:00,
2013-07-23 19:50:00,76.6,73.4,29.62,WNW,300,0.0,0.0,90,0.00,,---,0.40,62.00,VWS V14.01,2013-07-23 23:50:00,
2013-07-23 19:55:00,76.5,73.0,29.62,WNW,300,0.0,0.0,89,0.00,,---,0.40,54.00,VWS V14.01,2013-07-23 23:55:00,
2013-07-23 20:00:00,76.4,73.2,29.62,WNW,300,0.0,0.0,90,0.00,,---,0.40,35.00,VWS V14.01,2013-07-24 00:00:00,
2013-07-23 20:05:00,76.3,73.2,29.62,WNW,300,0.0,0.0,90,0.00,,---,0.40,23.00,VWS V14.01,2013-07-24 00:05:00,
2013-07-23 20:10:00,76.2,73.4,29.62,WNW,300,0.0,0.0,91,0.00,,---,0.40,16.00,VWS V14.01,2013-07-24 00:10:00,
2013-07-23 20:15:00,76.1,73.3,29.62,WNW,300,0.0,0.0,91,0.00,,---,0.40,9.00,VWS V14.01,2013-07-24 00:15:00,
2013-07-23 20:20:00,75.8,73.0,29.62,WNW,300,0.0,0.0,91,0.00,,---,0.40,5.00,VWS V14.01,2013-07-24 00:20:00,
2013-07-23 20:25:00,75.5,72.7,29.62,WNW,300,0.0,0.0,91,0.00,,---,0.40,0.00,VWS V14.01,2013-07-24 00:25:00,
2013-07-23 20:30:00,75.2,72.7,29.62,WNW,300,0.0,0.0,92,0.00,,---,0.40,0.00,VWS V14.01,2013-07-24 00:30:00,
2013-07-23 20:35:00,75.0,72.5,29.62,WNW,300,0.0,0.0,92,0.00,,---,0.40,0.00,VWS V14.01,2013-07-24 00:35:00,
2013-07-23 20:40:00,74.9,72.7,29.63,WNW,300,0.0,0.0,93,0.00,,---,0.40,0.00,VWS V14.01,2013-07-24 00:40:00,
2013-07-23 20:45:00,74.7,72.6,29.63,WNW,300,1.0,2.0,93,0.00,,---,0.40,0.00,VWS V14.01,2013-07-24 00:45:00,
2013-07-23 20:50:00,74.5,72.7,29.63,WNW,300,0.0,2.0,94,0.00,,---,0.40,0.00,VWS V14.01,2013-07-24 00:50:00,
2013-07-23 20:55:00,74.3,72.5,29.63,WNW,300,0.0,2.0,94,0.00,,---,0.40,0.00,VWS V14.01,2013-07-24 00:55:00,
2013-07-23 21:00:00,74.1,72.3,29.63,WNW,300,0.0,0.0,94,0.00,,---,0.40,0.00,VWS V14.01,2013-07-24 01:00:00,
2013-07-23 21:05:00,73.9,72.1,29.63,WNW,300,0.0,0.0,94,0.00,,---,0.40,0.00,VWS V14.01,2013-07-24 01:05:00,
2013-07-23 21:10:00,73.7,71.9,29.63,WNW,300,0.0,0.0,94,0.00,,---,0.40,0.00,VWS V14.01,2013-07-24 01:10:00,
2013-07-23 21:15:00,73.6,71.8,29.63,WNW,300,0.0,0.0,94,0.00,,---,0.40,0.00,VWS V14.01,2013-07-24 01:15:00,
2013-07-23 21:20:00,73.4,71.9,29.63,WNW,300,0.0,0.0,95,0.00,,---,0.40,0.00,VWS V14.01,2013-07-24 01:20:00,
2013-07-23 21:25:00,73.2,71.7,29.63,WNW,300,0.0,0.0,95,0.00,,---,0.40,0.00,VWS V14.01,2013-07-24 01:25:00,
2013-07-23 21:30:00,73.0,71.5,29.62,WNW,300,0.0,0.0,95,0.00,,---,0.40,0.00,VWS V14.01,2013-07-24 01:30:00,
2013-07-23 21:36:00,72.8,71.3,29.63,WNW,300,0.0,0.0,95,0.00,,---,0.40,0.00,VWS V14.01,2013-07-24 01:36:00,
2013-07-23 21:41:00,72.6,71.1,29.64,WNW,300,0.0,0.0,95,0.00,,---,0.40,0.00,VWS V14.01,2013-07-24 01:41:00,
2013-07-23 21:45:00,72.4,70.9,29.64,WNW,300,0.0,0.0,95,0.00,,---,0.40,0.00,VWS V14.01,2013-07-24 01:45:00,
2013-07-23 21:51:00,72.2,70.7,29.64,WNW,300,0.0,0.0,95,0.00,,---,0.40,0.00,VWS V14.01,2013-07-24 01:51:00,
2013-07-23 21:56:00,72.0,70.5,29.65,WNW,300,0.0,0.0,95,0.00,,---,0.40,0.00,VWS V14.01,2013-07-24 01:56:00,
2013-07-23 22:00:00,74.1,72.3,29.63,WNW,300,0.0,2.0,94,0.00,,---,0.40,0.00,VWS V14.01,2013-07-24 02:00:00,
2013-07-23 22:01:00,71.8,70.3,29.65,WNW,300,0.0,0.0,95,0.00,,---,0.40,0.00,VWS V14.01,2013-07-24 02:01:00,
2013-07-23 22:06:00,71.7,70.5,29.65,WNW,300,0.0,0.0,96,0.00,,---,0.40,0.00,VWS V14.01,2013-07-24 02:06:00,
2013-07-23 22:11:00,71.7,70.5,29.65,WNW,300,0.0,0.0,96,0.00,,---,0.40,0.00,VWS V14.01,2013-07-24 02:11:00,
2013-07-23 22:16:00,71.5,70.3,29.65,WNW,300,0.0,0.0,96,0.00,,---,0.40,0.00,VWS V14.01,2013-07-24 02:16:00,
2013-07-23 22:21:00,71.4,70.2,29.64,WNW,300,0.0,0.0,96,0.00,,---,0.40,0.00,VWS V14.01,2013-07-24 02:21:00,
2013-07-23 22:26:00,71.2,70.0,29.64,WNW,300,0.0,0.0,96,0.00,,---,0.40,0.00,VWS V14.01,2013-07-24 02:26:00,
2013-07-23 22:30:00,73.0,71.5,29.62,WNW,300,0.0,0.0,95,0.00,,---,0.40,0.00,VWS V14.01,2013-07-24 02:30:00,
2013-07-23 22:31:00,71.1,69.9,29.64,WNW,300,0.0,0.0,96,0.00,,---,0.40,0.00,VWS V14.01,2013-07-24 02:31:00,
2013-07-23 22:36:00,70.9,69.7,29.64,WNW,300,0.0,0.0,96,0.00,,---,0.40,0.00,VWS V14.01,2013-07-24 02:36:00,
2013-07-23 22:41:00,70.8,69.6,29.64,WNW,300,0.0,0.0,96,0.00,,---,0.40,0.00,VWS V14.01,2013-07-24 02:41:00,
2013-07-23 22:47:00,70.7,69.5,29.65,WNW,300,0.0,0.0,96,0.00,,---,0.40,0.00,VWS V14.01,2013-07-24 02:47:00,
2013-07-23 22:52:00,70.5,69.3,29.64,WNW,300,0.0,0.0,96,0.00,,---,0.40,0.00,VWS V14.01,2013-07-24 02:52:00,
2013-07-23 22:57:00,70.4,69.2,29.64,WNW,300,0.0,0.0,96,0.00,,---,0.40,0.00,VWS V14.01,2013-07-24 02:57:00,
2013-07-23 23:00:00,71.8,70.3,29.65,WNW,300,0.0,0.0,95,0.00,,---,0.40,0.00,VWS V14.01,2013-07-24 03:00:00,
2013-07-23 23:02:00,70.3,69.1,29.65,WNW,300,0.0,0.0,96,0.00,,---,0.40,0.00,VWS V14.01,2013-07-24 03:02:00,
2013-07-23 23:07:00,70.1,68.9,29.65,WNW,300,0.0,0.0,96,0.00,,---,0.40,0.00,VWS V14.01,2013-07-24 03:07:00,
2013-07-23 23:12:00,70.0,68.8,29.64,WNW,300,0.0,0.0,96,0.00,,---,0.40,0.00,VWS V14.01,2013-07-24 03:12:00,
2013-07-23 23:17:00,69.9,68.7,29.65,WNW,300,0.0,0.0,96,0.00,,---,0.40,0.00,VWS V14.01,2013-07-24 03:17:00,
2013-07-23 23:22:00,69.9,69.0,29.65,WNW,300,0.0,0.0,97,0.00,,---,0.40,0.00,VWS V14.01,2013-07-24 03:22:00,
2013-07-23 23:27:00,69.9,69.0,29.65,WNW,300,0.0,0.0,97,0.00,,---,0.40,0.00,VWS V14.01,2013-07-24 03:27:00,
2013-07-23 23:30:00,71.1,69.9,29.64,WNW,300,0.0,0.0,96,0.00,,---,0.40,0.00,VWS V14.01,2013-07-24 03:30:00,
2013-07-23 23:33:00,69.9,69.0,29.65,WNW,300,0.0,0.0,97,0.00,,---,0.40,0.00,VWS V14.01,2013-07-24 03:33:00,
2013-07-23 23:38:00,70.0,69.1,29.66,WNW,300,0.0,0.0,97,0.00,,---,0.40,0.00,VWS V14.01,2013-07-24 03:38:00,
2013-07-23 23:43:00,70.1,69.2,29.65,WNW,300,0.0,0.0,97,0.00,,---,0.40,0.00,VWS V14.01,2013-07-24 03:43:00,
2013-07-23 23:48:00,70.1,69.2,29.65,WNW,300,0.0,0.0,97,0.00,,---,0.40,0.00,VWS V14.01,2013-07-24 03:48:00,
2013-07-23 23:53:00,70.2,69.3,29.65,WNW,300,0.0,0.0,97,0.00,,---,0.40,0.00,VWS V14.01,2013-07-24 03:53:00,
2013-07-23 23:58:00,70.2,69.3,29.65,WNW,300,0.0,0.0,97,0.00,,---,0.40,0.00,VWS V14.01,2013-07-24 03:58:00,